Terminal Aerodrome Forecast
Issued by NWS

Home | Current Version | Previous Version | Text Only | Print | Product List | Glossary On
Versions: 1 2 3 4 5 6 7 8 9 10 11 12 13
000
FTUS43 KMQT 040523
TAFIWD
TAF
KIWD 040523Z 0406/0506 00000KT 2SM BR SKC
      TEMPO 0406/0410 1/2SM FG VV004
     FM041200 VRB03KT 5SM BR SKC
     FM041300 07003KT P6SM SCT200
      AMD LTD TO CLD VIS AND WIND=

USA.gov is the U.S. government's official web portal to all federal, state and local government web resources and services.